sensor_id;sensor_type;location;lat;lon;timestamp;pressure;altitude;pressure_sealevel;temperature;humidity
48630;BME280;34426;52.180;4.462;2023-12-04T00:00:50;101280.31;;;1.19;100.00
48630;BME280;34426;52.180;4.462;2023-12-04T00:03:18;101283.53;;;1.22;100.00
48630;BME280;34426;52.180;4.462;2023-12-04T00:05:44;101280.50;;;1.17;100.00
48630;BME280;34426;52.180;4.462;2023-12-04T00:08:09;101273.94;;;1.18;100.00
48630;BME280;34426;52.180;4.462;2023-12-04T00:10:36;101271.47;;;1.23;100.00
48630;BME280;34426;52.180;4.462;2023-12-04T00:13:03;101270.88;;;1.28;100.00
48630;BME280;34426;52.180;4.462;2023-12-04T00:15:29;101264.50;;;1.27;100.00
48630;BME280;34426;52.180;4.462;2023-12-04T00:17:54;101258.53;;;1.24;100.00
48630;BME280;34426;52.180;4.462;2023-12-04T00:20:20;101261.47;;;1.22;100.00
48630;BME280;34426;52.180;4.462;2023-12-04T00:22:46;101266.34;;;1.20;100.00
48630;BME280;34426;52.180;4.462;2023-12-04T00:25:11;101258.47;;;1.17;100.00
48630;BME280;34426;52.180;4.462;2023-12-04T00:27:37;101250.59;;;1.14;100.00
48630;BME280;34426;52.180;4.462;2023-12-04T00:30:05;101249.75;;;1.14;100.00
48630;BME280;34426;52.180;4.462;2023-12-04T00:32:31;101242.25;;;1.08;100.00
48630;BME280;34426;52.180;4.462;2023-12-04T00:34:57;101250.31;;;1.09;100.00
48630;BME280;34426;52.180;4.462;2023-12-04T00:37:22;101245.66;;;1.10;100.00
48630;BME280;34426;52.180;4.462;2023-12-04T00:39:48;101245.59;;;1.03;100.00
48630;BME280;34426;52.180;4.462;2023-12-04T00:42:14;101244.16;;;1.07;100.00
48630;BME280;34426;52.180;4.462;2023-12-04T00:44:39;101247.31;;;1.04;100.00
48630;BME280;34426;52.180;4.462;2023-12-04T00:47:06;101241.59;;;1.06;100.00
48630;BME280;34426;52.180;4.462;2023-12-04T00:49:32;101239.31;;;1.09;100.00
48630;BME280;34426;52.180;4.462;2023-12-04T00:51:57;101236.56;;;1.09;100.00
48630;BME280;34426;52.180;4.462;2023-12-04T00:54:26;101236.28;;;1.04;100.00
48630;BME280;34426;52.180;4.462;2023-12-04T00:56:54;101231.56;;;0.98;100.00
48630;BME280;34426;52.180;4.462;2023-12-04T00:59:20;101231.69;;;1.11;100.00
48630;BME280;34426;52.180;4.462;2023-12-04T01:01:45;101227.38;;;1.02;100.00
48630;BME280;34426;52.180;4.462;2023-12-04T01:04:15;101219.69;;;0.97;100.00
48630;BME280;34426;52.180;4.462;2023-12-04T01:06:43;101207.81;;;0.97;100.00
48630;BME280;34426;52.180;4.462;2023-12-04T01:09:08;101210.84;;;1.02;100.00
48630;BME280;34426;52.180;4.462;2023-12-04T01:11:34;101205.06;;;0.97;100.00
48630;BME280;34426;52.180;4.462;2023-12-04T01:13:59;101199.69;;;0.89;100.00
48630;BME280;34426;52.180;4.462;2023-12-04T01:16:25;101199.31;;;0.92;100.00
48630;BME280;34426;52.180;4.462;2023-12-04T01:18:50;101187.22;;;0.93;100.00
48630;BME280;34426;52.180;4.462;2023-12-04T01:21:17;101186.38;;;0.92;100.00
48630;BME280;34426;52.180;4.462;2023-12-04T01:23:43;101188.09;;;0.93;100.00
48630;BME280;34426;52.180;4.462;2023-12-04T01:26:10;101182.38;;;0.95;100.00
48630;BME280;34426;52.180;4.462;2023-12-04T01:28:35;101181.34;;;0.96;100.00
48630;BME280;34426;52.180;4.462;2023-12-04T01:31:01;101188.53;;;0.97;100.00
48630;BME280;34426;52.180;4.462;2023-12-04T01:33:26;101187.03;;;0.94;100.00
48630;BME280;34426;52.180;4.462;2023-12-04T01:35:52;101193.00;;;0.98;100.00
48630;BME280;34426;52.180;4.462;2023-12-04T01:38:19;101187.88;;;0.95;100.00
48630;BME280;34426;52.180;4.462;2023-12-04T01:40:44;101178.31;;;0.91;100.00
48630;BME280;34426;52.180;4.462;2023-12-04T01:43:10;101184.22;;;0.88;100.00
48630;BME280;34426;52.180;4.462;2023-12-04T01:45:35;101177.44;;;0.84;100.00
48630;BME280;34426;52.180;4.462;2023-12-04T01:48:02;101185.34;;;0.93;100.00
48630;BME280;34426;52.180;4.462;2023-12-04T01:50:28;101177.28;;;0.92;100.00
48630;BME280;34426;52.180;4.462;2023-12-04T01:52:53;101174.31;;;0.93;100.00
48630;BME280;34426;52.180;4.462;2023-12-04T01:55:20;101174.72;;;0.90;100.00
48630;BME280;34426;52.180;4.462;2023-12-04T01:57:46;101166.66;;;0.89;100.00
48630;BME280;34426;52.180;4.462;2023-12-04T02:00:13;101161.97;;;0.83;100.00
48630;BME280;34426;52.180;4.462;2023-12-04T02:02:39;101156.91;;;0.86;100.00
48630;BME280;34426;52.180;4.462;2023-12-04T02:05:05;101154.75;;;0.82;100.00
48630;BME280;34426;52.180;4.462;2023-12-04T02:07:32;101153.69;;;0.83;100.00
48630;BME280;34426;52.180;4.462;2023-12-04T02:09:58;101150.28;;;0.81;100.00
48630;BME280;34426;52.180;4.462;2023-12-04T02:12:26;101150.94;;;0.83;100.00
48630;BME280;34426;52.180;4.462;2023-12-04T02:14:52;101153.50;;;0.84;100.00
48630;BME280;34426;52.180;4.462;2023-12-04T02:17:18;101138.47;;;0.87;100.00
48630;BME280;34426;52.180;4.462;2023-12-04T02:19:45;101128.41;;;0.73;100.00
48630;BME280;34426;52.180;4.462;2023-12-04T02:22:10;101125.91;;;0.78;100.00
48630;BME280;34426;52.180;4.462;2023-12-04T02:24:37;101121.91;;;0.80;100.00
48630;BME280;34426;52.180;4.462;2023-12-04T02:27:08;101132.56;;;0.90;100.00
48630;BME280;34426;52.180;4.462;2023-12-04T02:29:47;101126.56;;;0.80;100.00
48630;BME280;34426;52.180;4.462;2023-12-04T02:32:18;101119.19;;;0.87;100.00
48630;BME280;34426;52.180;4.462;2023-12-04T02:34:45;101111.09;;;0.79;100.00
48630;BME280;34426;52.180;4.462;2023-12-04T02:37:13;101109.03;;;0.87;100.00
48630;BME280;34426;52.180;4.462;2023-12-04T02:39:41;101105.03;;;0.90;100.00
48630;BME280;34426;52.180;4.462;2023-12-04T02:42:07;101103.56;;;0.94;100.00
48630;BME280;34426;52.180;4.462;2023-12-04T02:44:32;101101.38;;;0.83;100.00
48630;BME280;34426;52.180;4.462;2023-12-04T02:46:58;101099.31;;;0.91;100.00
48630;BME280;34426;52.180;4.462;2023-12-04T02:49:23;101096.56;;;0.91;100.00
48630;BME280;34426;52.180;4.462;2023-12-04T02:51:49;101095.06;;;0.89;100.00
48630;BME280;34426;52.180;4.462;2023-12-04T02:54:14;101092.31;;;0.89;100.00
48630;BME280;34426;52.180;4.462;2023-12-04T02:56:41;101089.56;;;0.89;100.00
48630;BME280;34426;52.180;4.462;2023-12-04T02:59:07;101079.44;;;0.96;100.00
48630;BME280;34426;52.180;4.462;2023-12-04T03:01:32;101070.09;;;0.90;100.00
48630;BME280;34426;52.180;4.462;2023-12-04T03:03:58;101076.88;;;0.94;100.00
48630;BME280;34426;52.180;4.462;2023-12-04T03:06:23;101064.13;;;0.87;100.00
48630;BME280;34426;52.180;4.462;2023-12-04T03:08:49;101068.75;;;0.80;100.00
48630;BME280;34426;52.180;4.462;2023-12-04T03:11:14;101059.03;;;0.84;100.00
48630;BME280;34426;52.180;4.462;2023-12-04T03:13:41;101050.31;;;0.80;100.00
48630;BME280;34426;52.180;4.462;2023-12-04T03:16:15;101051.84;;;0.83;100.00
48630;BME280;34426;52.180;4.462;2023-12-04T03:18:40;101045.06;;;0.85;100.00
48630;BME280;34426;52.180;4.462;2023-12-04T03:21:06;101039.13;;;0.82;100.00
48630;BME280;34426;52.180;4.462;2023-12-04T03:23:32;101036.50;;;0.74;100.00
48630;BME280;34426;52.180;4.462;2023-12-04T03:25:57;101032.97;;;0.80;100.00
48630;BME280;34426;52.180;4.462;2023-12-04T03:28:23;101029.81;;;0.83;100.00
48630;BME280;34426;52.180;4.462;2023-12-04T03:30:50;101021.03;;;0.73;100.00
48630;BME280;34426;52.180;4.462;2023-12-04T03:33:16;101014.94;;;0.77;100.00
48630;BME280;34426;52.180;4.462;2023-12-04T03:35:41;101010.03;;;0.73;100.00
48630;BME280;34426;52.180;4.462;2023-12-04T03:38:07;101014.03;;;0.70;100.00
48630;BME280;34426;52.180;4.462;2023-12-04T03:40:33;101007.72;;;0.76;100.00
48630;BME280;34426;52.180;4.462;2023-12-04T03:42:59;101014.88;;;0.71;100.00
48630;BME280;34426;52.180;4.462;2023-12-04T03:45:25;100999.66;;;0.75;100.00
48630;BME280;34426;52.180;4.462;2023-12-04T03:47:52;100990.75;;;0.73;100.00
48630;BME280;34426;52.180;4.462;2023-12-04T03:50:19;100985.09;;;0.81;100.00
48630;BME280;34426;52.180;4.462;2023-12-04T03:52:45;100986.56;;;0.77;100.00
48630;BME280;34426;52.180;4.462;2023-12-04T03:55:11;100981.06;;;0.77;100.00
48630;BME280;34426;52.180;4.462;2023-12-04T03:57:37;100983.09;;;0.68;100.00
48630;BME280;34426;52.180;4.462;2023-12-04T04:00:03;100979.75;;;0.73;100.00
48630;BME280;34426;52.180;4.462;2023-12-04T04:02:30;100978.06;;;0.72;100.00
48630;BME280;34426;52.180;4.462;2023-12-04T04:04:57;100977.44;;;0.76;100.00
48630;BME280;34426;52.180;4.462;2023-12-04T04:07:23;100980.00;;;0.78;100.00
48630;BME280;34426;52.180;4.462;2023-12-04T04:09:49;100977.59;;;0.68;100.00
48630;BME280;34426;52.180;4.462;2023-12-04T04:12:14;100972.53;;;0.72;100.00
48630;BME280;34426;52.180;4.462;2023-12-04T04:14:40;100967.03;;;0.72;100.00
48630;BME280;34426;52.180;4.462;2023-12-04T04:17:05;100968.50;;;0.68;100.00
48630;BME280;34426;52.180;4.462;2023-12-04T04:19:31;100964.88;;;0.67;100.00
48630;BME280;34426;52.180;4.462;2023-12-04T04:21:57;100962.34;;;0.65;100.00
48630;BME280;34426;52.180;4.462;2023-12-04T04:24:23;100956.44;;;0.69;100.00
48630;BME280;34426;52.180;4.462;2023-12-04T04:26:49;100952.03;;;0.74;100.00
48630;BME280;34426;52.180;4.462;2023-12-04T04:29:14;100954.56;;;0.76;100.00
48630;BME280;34426;52.180;4.462;2023-12-04T04:31:40;100939.13;;;0.75;100.00
48630;BME280;34426;52.180;4.462;2023-12-04T04:34:05;100947.78;;;0.72;100.00
48630;BME280;34426;52.180;4.462;2023-12-04T04:36:31;100935.97;;;0.78;100.00
48630;BME280;34426;52.180;4.462;2023-12-04T04:38:58;100944.88;;;0.80;100.00
48630;BME280;34426;52.180;4.462;2023-12-04T04:41:23;100941.06;;;0.81;100.00
48630;BME280;34426;52.180;4.462;2023-12-04T04:43:49;100942.50;;;0.77;100.00
48630;BME280;34426;52.180;4.462;2023-12-04T04:46:14;100946.13;;;0.77;100.00
48630;BME280;34426;52.180;4.462;2023-12-04T04:48:40;100933.66;;;0.88;100.00
48630;BME280;34426;52.180;4.462;2023-12-04T04:51:06;100934.09;;;0.85;100.00
48630;BME280;34426;52.180;4.462;2023-12-04T04:53:31;100932.59;;;0.82;100.00
48630;BME280;34426;52.180;4.462;2023-12-04T04:55:58;100927.91;;;0.76;100.00
48630;BME280;34426;52.180;4.462;2023-12-04T04:58:24;100932.97;;;0.73;100.00
48630;BME280;34426;52.180;4.462;2023-12-04T05:00:49;100925.59;;;0.80;100.00
48630;BME280;34426;52.180;4.462;2023-12-04T05:03:15;100918.84;;;0.82;100.00
48630;BME280;34426;52.180;4.462;2023-12-04T05:05:42;100913.13;;;0.84;100.00
48630;BME280;34426;52.180;4.462;2023-12-04T05:08:07;100911.44;;;0.83;100.00
48630;BME280;34426;52.180;4.462;2023-12-04T05:10:33;100901.69;;;0.87;100.00
48630;BME280;34426;52.180;4.462;2023-12-04T05:13:00;100899.31;;;0.77;100.00
48630;BME280;34426;52.180;4.462;2023-12-04T05:15:25;100904.66;;;0.85;100.00
48630;BME280;34426;52.180;4.462;2023-12-04T05:17:51;100903.38;;;0.88;100.00
48630;BME280;34426;52.180;4.462;2023-12-04T05:20:16;100897.25;;;0.92;100.00
48630;BME280;34426;52.180;4.462;2023-12-04T05:22:42;100903.16;;;0.83;100.00
48630;BME280;34426;52.180;4.462;2023-12-04T05:25:08;100900.22;;;0.91;100.00
48630;BME280;34426;52.180;4.462;2023-12-04T05:27:33;100891.31;;;0.89;100.00
48630;BME280;34426;52.180;4.462;2023-12-04T05:30:00;100890.91;;;0.92;100.00
48630;BME280;34426;52.180;4.462;2023-12-04T05:32:25;100886.69;;;0.96;99.61
48630;BME280;34426;52.180;4.462;2023-12-04T05:34:51;100871.88;;;0.97;99.58
48630;BME280;34426;52.180;4.462;2023-12-04T05:37:16;100886.69;;;0.96;99.38
48630;BME280;34426;52.180;4.462;2023-12-04T05:39:42;100879.72;;;1.00;99.18
48630;BME280;34426;52.180;4.462;2023-12-04T05:42:08;100874.81;;;0.95;98.92
48630;BME280;34426;52.180;4.462;2023-12-04T05:44:33;100877.38;;;0.97;98.21
48630;BME280;34426;52.180;4.462;2023-12-04T05:47:00;100875.72;;;1.03;97.82
48630;BME280;34426;52.180;4.462;2023-12-04T05:49:26;100871.50;;;1.07;98.01
48630;BME280;34426;52.180;4.462;2023-12-04T05:51:51;100875.56;;;1.17;96.99
48630;BME280;34426;52.180;4.462;2023-12-04T05:54:17;100870.69;;;1.13;97.37
48630;BME280;34426;52.180;4.462;2023-12-04T05:56:42;100874.06;;;1.15;97.47
48630;BME280;34426;52.180;4.462;2023-12-04T05:59:08;100884.25;;;1.14;96.21
48630;BME280;34426;52.180;4.462;2023-12-04T06:01:33;100883.84;;;1.17;95.87
48630;BME280;34426;52.180;4.462;2023-12-04T06:04:00;100877.91;;;1.20;96.34
48630;BME280;34426;52.180;4.462;2023-12-04T06:06:26;100880.03;;;1.18;96.79
48630;BME280;34426;52.180;4.462;2023-12-04T06:08:51;100876.81;;;1.15;96.81
48630;BME280;34426;52.180;4.462;2023-12-04T06:11:17;100874.50;;;1.18;95.99
48630;BME280;34426;52.180;4.462;2023-12-04T06:13:42;100869.84;;;1.19;95.32
48630;BME280;34426;52.180;4.462;2023-12-04T06:16:08;100874.50;;;1.18;96.11
48630;BME280;34426;52.180;4.462;2023-12-04T06:18:34;100871.13;;;1.23;95.69
48630;BME280;34426;52.180;4.462;2023-12-04T06:21:01;100867.78;;;1.27;95.92
48630;BME280;34426;52.180;4.462;2023-12-04T06:23:27;100866.06;;;1.26;96.04
48630;BME280;34426;52.180;4.462;2023-12-04T06:25:53;100863.97;;;1.28;95.58
48630;BME280;34426;52.180;4.462;2023-12-04T06:28:19;100850.81;;;1.24;95.56
48630;BME280;34426;52.180;4.462;2023-12-04T06:30:45;100847.19;;;1.23;96.57
48630;BME280;34426;52.180;4.462;2023-12-04T06:33:11;100851.22;;;1.21;96.18
48630;BME280;34426;52.180;4.462;2023-12-04T06:35:37;100847.19;;;1.17;96.46
48630;BME280;34426;52.180;4.462;2023-12-04T06:38:06;100841.88;;;1.15;97.12
48630;BME280;34426;52.180;4.462;2023-12-04T06:40:33;100848.22;;;1.16;96.42
48630;BME280;34426;52.180;4.462;2023-12-04T06:42:59;100845.28;;;1.24;96.33
48630;BME280;34426;52.180;4.462;2023-12-04T06:45:25;100827.06;;;1.23;95.78
48630;BME280;34426;52.180;4.462;2023-12-04T06:47:52;100836.19;;;1.23;95.62
48630;BME280;34426;52.180;4.462;2023-12-04T06:50:18;100826.00;;;1.17;96.50
48630;BME280;34426;52.180;4.462;2023-12-04T06:52:44;100826.63;;;1.19;95.66
48630;BME280;34426;52.180;4.462;2023-12-04T06:55:12;100823.06;;;1.25;94.93
48630;BME280;34426;52.180;4.462;2023-12-04T06:57:38;100827.09;;;1.29;94.65
48630;BME280;34426;52.180;4.462;2023-12-04T07:00:05;100814.97;;;1.30;95.34
48630;BME280;34426;52.180;4.462;2023-12-04T07:02:31;100817.72;;;1.30;95.19
48630;BME280;34426;52.180;4.462;2023-12-04T07:04:56;100818.19;;;1.27;94.87
48630;BME280;34426;52.180;4.462;2023-12-04T07:07:22;100808.84;;;1.22;95.34
48630;BME280;34426;52.180;4.462;2023-12-04T07:09:47;100809.47;;;1.17;96.07
48630;BME280;34426;52.180;4.462;2023-12-04T07:12:14;100816.91;;;1.23;95.54
48630;BME280;34426;52.180;4.462;2023-12-04T07:14:40;100812.22;;;1.30;94.40
48630;BME280;34426;52.180;4.462;2023-12-04T07:17:06;100809.47;;;1.30;94.55
48630;BME280;34426;52.180;4.462;2023-12-04T07:19:32;100804.59;;;1.32;94.28
48630;BME280;34426;52.180;4.462;2023-12-04T07:21:57;100805.88;;;1.37;94.41
48630;BME280;34426;52.180;4.462;2023-12-04T07:24:23;100803.13;;;1.37;94.42
48630;BME280;34426;52.180;4.462;2023-12-04T07:26:48;100789.78;;;1.40;94.74
48630;BME280;34426;52.180;4.462;2023-12-04T07:29:15;100791.91;;;1.45;94.07
48630;BME280;34426;52.180;4.462;2023-12-04T07:31:41;100787.25;;;1.45;93.42
48630;BME280;34426;52.180;4.462;2023-12-04T07:34:07;100789.38;;;1.43;93.69
48630;BME280;34426;52.180;4.462;2023-12-04T07:36:33;100784.91;;;1.49;93.29
48630;BME280;34426;52.180;4.462;2023-12-04T07:38:58;100791.50;;;1.48;93.14
48630;BME280;34426;52.180;4.462;2023-12-04T07:41:24;100780.03;;;1.51;92.22
48630;BME280;34426;52.180;4.462;2023-12-04T07:43:49;100788.09;;;1.46;92.66
48630;BME280;34426;52.180;4.462;2023-12-04T07:46:19;100790.44;;;1.49;93.03
48630;BME280;34426;52.180;4.462;2023-12-04T07:48:45;100784.69;;;1.44;93.03
48630;BME280;34426;52.180;4.462;2023-12-04T07:51:10;100785.56;;;1.51;92.21
48630;BME280;34426;52.180;4.462;2023-12-04T07:53:35;100785.97;;;1.48;92.81
48630;BME280;34426;52.180;4.462;2023-12-04T07:56:01;100780.47;;;1.61;92.06
48630;BME280;34426;52.180;4.462;2023-12-04T07:58:27;100780.47;;;1.61;91.86
48630;BME280;34426;52.180;4.462;2023-12-04T08:00:52;100778.78;;;1.60;91.51
48630;BME280;34426;52.180;4.462;2023-12-04T08:03:30;100775.41;;;1.64;91.42
48630;BME280;34426;52.180;4.462;2023-12-04T08:05:55;100772.84;;;1.63;91.13
48630;BME280;34426;52.180;4.462;2023-12-04T08:08:21;100768.63;;;1.67;90.66
48630;BME280;34426;52.180;4.462;2023-12-04T08:10:47;100768.84;;;1.72;90.50
48630;BME280;34426;52.180;4.462;2023-12-04T08:13:19;100779.63;;;1.80;90.87
48630;BME280;34426;52.180;4.462;2023-12-04T08:15:44;100776.84;;;1.74;90.52
48630;BME280;34426;52.180;4.462;2023-12-04T08:18:10;100777.06;;;1.79;89.85
48630;BME280;34426;52.180;4.462;2023-12-04T08:20:36;100777.50;;;1.82;90.04
48630;BME280;34426;52.180;4.462;2023-12-04T08:23:02;100771.34;;;1.80;90.60
48630;BME280;34426;52.180;4.462;2023-12-04T08:25:27;100765.19;;;1.78;90.97
48630;BME280;34426;52.180;4.462;2023-12-04T08:27:53;100773.03;;;1.81;90.07
48630;BME280;34426;52.180;4.462;2023-12-04T08:30:18;100758.81;;;1.84;89.78
48630;BME280;34426;52.180;4.462;2023-12-04T08:32:44;100759.25;;;1.88;89.81
48630;BME280;34426;52.180;4.462;2023-12-04T08:35:09;100752.47;;;1.90;89.39
48630;BME280;34426;52.180;4.462;2023-12-04T08:37:36;100753.31;;;1.91;89.11
48630;BME280;34426;52.180;4.462;2023-12-04T08:40:02;100752.47;;;1.90;89.97
48630;BME280;34426;52.180;4.462;2023-12-04T08:42:27;100748.22;;;1.94;88.88
48630;BME280;34426;52.180;4.462;2023-12-04T08:44:53;100748.22;;;1.94;89.03
48630;BME280;34426;52.180;4.462;2023-12-04T08:47:18;100754.16;;;1.91;88.74
48630;BME280;34426;52.180;4.462;2023-12-04T08:49:43;100751.19;;;1.99;88.30
48630;BME280;34426;52.180;4.462;2023-12-04T08:52:09;100752.03;;;1.93;87.83
48630;BME280;34426;52.180;4.462;2023-12-04T08:54:38;100746.09;;;2.03;87.67
48630;BME280;34426;52.180;4.462;2023-12-04T08:57:04;100745.25;;;2.03;88.15
48630;BME280;34426;52.180;4.462;2023-12-04T08:59:30;100730.59;;;1.95;87.38
48630;BME280;34426;52.180;4.462;2023-12-04T09:01:55;100742.28;;;1.97;86.98
48630;BME280;34426;52.180;4.462;2023-12-04T09:04:21;100741.84;;;2.00;86.84
48630;BME280;34426;52.180;4.462;2023-12-04T09:06:46;100740.38;;;1.98;87.45
48630;BME280;34426;52.180;4.462;2023-12-04T09:09:11;100736.34;;;2.00;87.32
48630;BME280;34426;52.180;4.462;2023-12-04T09:11:41;100733.34;;;2.09;87.42
48630;BME280;34426;52.180;4.462;2023-12-04T09:14:07;100741.00;;;2.07;86.59
48630;BME280;34426;52.180;4.462;2023-12-04T09:16:32;100736.75;;;2.04;86.05
48630;BME280;34426;52.180;4.462;2023-12-04T09:18:58;100737.59;;;2.05;86.09
48630;BME280;34426;52.180;4.462;2023-12-04T09:21:23;100732.72;;;2.07;86.26
48630;BME280;34426;52.180;4.462;2023-12-04T09:23:49;100736.09;;;2.15;84.38
48630;BME280;34426;52.180;4.462;2023-12-04T09:26:14;100738.00;;;2.08;85.39
48630;BME280;34426;52.180;4.462;2023-12-04T09:28:41;100738.66;;;2.10;84.94
48630;BME280;34426;52.180;4.462;2023-12-04T09:31:08;100739.72;;;2.03;85.76
48630;BME280;34426;52.180;4.462;2023-12-04T09:33:33;100732.91;;;2.12;86.12
48630;BME280;34426;52.180;4.462;2023-12-04T09:35:59;100741.81;;;2.14;85.38
48630;BME280;34426;52.180;4.462;2023-12-04T09:38:24;100739.06;;;2.14;84.30
48630;BME280;34426;52.180;4.462;2023-12-04T09:40:51;100735.63;;;2.18;85.02
48630;BME280;34426;52.180;4.462;2023-12-04T09:43:17;100737.53;;;2.18;84.73
48630;BME280;34426;52.180;4.462;2023-12-04T09:45:45;100733.09;;;2.17;85.20
48630;BME280;34426;52.180;4.462;2023-12-04T09:48:11;100732.22;;;2.23;84.51
48630;BME280;34426;52.180;4.462;2023-12-04T09:50:36;100723.53;;;2.26;84.54
48630;BME280;34426;52.180;4.462;2023-12-04T09:53:02;100725.22;;;2.27;84.17
48630;BME280;34426;52.180;4.462;2023-12-04T09:55:28;100728.16;;;2.32;84.06
48630;BME280;34426;52.180;4.462;2023-12-04T09:57:54;100717.38;;;2.24;84.05
48630;BME280;34426;52.180;4.462;2023-12-04T10:00:20;100717.97;;;2.32;83.37
48630;BME280;34426;52.180;4.462;2023-12-04T10:02:48;100722.66;;;2.25;83.61
48630;BME280;34426;52.180;4.462;2023-12-04T10:05:14;100717.59;;;2.22;83.77
48630;BME280;34426;52.180;4.462;2023-12-04T10:07:39;100708.66;;;2.27;82.78
48630;BME280;34426;52.180;4.462;2023-12-04T10:10:05;100708.66;;;2.27;83.01
48630;BME280;34426;52.180;4.462;2023-12-04T10:12:31;100703.13;;;2.33;83.90
48630;BME280;34426;52.180;4.462;2023-12-04T10:15:04;100693.78;;;2.28;83.50
48630;BME280;34426;52.180;4.462;2023-12-04T10:17:33;100698.69;;;2.26;83.41
48630;BME280;34426;52.180;4.462;2023-12-04T10:20:06;100692.94;;;2.34;82.63
48630;BME280;34426;52.180;4.462;2023-12-04T10:22:32;100678.06;;;2.35;83.66
48630;BME280;34426;52.180;4.462;2023-12-04T10:24:57;100688.66;;;2.45;81.53
48630;BME280;34426;52.180;4.462;2023-12-04T10:27:26;100669.09;;;2.46;82.27
48630;BME280;34426;52.180;4.462;2023-12-04T10:29:51;100672.41;;;2.61;82.57
48630;BME280;34426;52.180;4.462;2023-12-04T10:32:18;100660.50;;;2.61;81.22
48630;BME280;34426;52.180;4.462;2023-12-04T10:34:43;100664.75;;;2.63;81.70
48630;BME280;34426;52.180;4.462;2023-12-04T10:37:11;100650.94;;;2.63;82.38
48630;BME280;34426;52.180;4.462;2023-12-04T10:39:45;100639.19;;;2.75;81.00
48630;BME280;34426;52.180;4.462;2023-12-04T10:42:11;100643.84;;;2.81;81.30
48630;BME280;34426;52.180;4.462;2023-12-04T10:44:40;100632.97;;;2.86;80.77
48630;BME280;34426;52.180;4.462;2023-12-04T10:47:05;100624.19;;;2.95;80.56
48630;BME280;34426;52.180;4.462;2023-12-04T10:49:31;100625.03;;;2.96;81.40
48630;BME280;34426;52.180;4.462;2023-12-04T10:51:58;100611.72;;;3.11;80.07
48630;BME280;34426;52.180;4.462;2023-12-04T10:54:25;100611.31;;;3.08;79.94
48630;BME280;34426;52.180;4.462;2023-12-04T10:56:52;100606.19;;;3.11;80.60
48630;BME280;34426;52.180;4.462;2023-12-04T10:59:22;100607.00;;;3.18;79.94
48630;BME280;34426;52.180;4.462;2023-12-04T11:01:51;100607.38;;;3.22;80.31
48630;BME280;34426;52.180;4.462;2023-12-04T11:04:19;100603.03;;;3.32;80.12
48630;BME280;34426;52.180;4.462;2023-12-04T11:06:48;100605.53;;;3.41;78.95
48630;BME280;34426;52.180;4.462;2023-12-04T11:09:15;100598.59;;;3.50;79.71
48630;BME280;34426;52.180;4.462;2023-12-04T11:11:47;100593.06;;;3.50;79.07
48630;BME280;34426;52.180;4.462;2023-12-04T11:14:15;100591.38;;;3.49;78.32
48630;BME280;34426;52.180;4.462;2023-12-04T11:16:47;100593.53;;;3.47;79.67
48630;BME280;34426;52.180;4.462;2023-12-04T11:19:18;100586.34;;;3.46;78.54
48630;BME280;34426;52.180;4.462;2023-12-04T11:21:46;100583.09;;;3.49;78.22
48630;BME280;34426;52.180;4.462;2023-12-04T11:24:11;100586.78;;;3.43;78.17
48630;BME280;34426;52.180;4.462;2023-12-04T11:26:37;100590.22;;;3.38;78.14
48630;BME280;34426;52.180;4.462;2023-12-04T11:29:05;100589.38;;;3.38;79.10
48630;BME280;34426;52.180;4.462;2023-12-04T11:31:31;100585.63;;;3.32;78.90
48630;BME280;34426;52.180;4.462;2023-12-04T11:34:01;100583.53;;;3.27;79.57
48630;BME280;34426;52.180;4.462;2023-12-04T11:36:27;100575.41;;;3.32;78.74
48630;BME280;34426;52.180;4.462;2023-12-04T11:38:53;100570.50;;;3.53;78.22
48630;BME280;34426;52.180;4.462;2023-12-04T11:41:19;100564.66;;;3.61;78.10
48630;BME280;34426;52.180;4.462;2023-12-04T11:43:46;100571.19;;;3.66;78.30
48630;BME280;34426;52.180;4.462;2023-12-04T11:46:14;100568.97;;;3.75;77.92
48630;BME280;34426;52.180;4.462;2023-12-04T11:48:44;100564.13;;;3.71;77.64
48630;BME280;34426;52.180;4.462;2023-12-04T11:51:09;100574.28;;;3.77;77.95
48630;BME280;34426;52.180;4.462;2023-12-04T11:53:37;100562.91;;;3.66;77.35
48630;BME280;34426;52.180;4.462;2023-12-04T11:56:08;100557.16;;;3.68;77.06
48630;BME280;34426;52.180;4.462;2023-12-04T11:58:41;100555.16;;;3.75;77.13
48630;BME280;34426;52.180;4.462;2023-12-04T12:01:07;100547.38;;;3.65;78.12
48630;BME280;34426;52.180;4.462;2023-12-04T12:03:34;100549.63;;;3.57;78.88
48630;BME280;34426;52.180;4.462;2023-12-04T12:06:00;100552.38;;;3.57;78.83
48630;BME280;34426;52.180;4.462;2023-12-04T12:08:28;100548.47;;;3.46;80.65
48630;BME280;34426;52.180;4.462;2023-12-04T12:10:54;100535.47;;;3.47;80.45
48630;BME280;34426;52.180;4.462;2023-12-04T12:13:20;100532.41;;;3.37;81.18
48630;BME280;34426;52.180;4.462;2023-12-04T12:15:46;100521.59;;;3.35;81.44
48630;BME280;34426;52.180;4.462;2023-12-04T12:18:12;100525.19;;;3.36;82.25
48630;BME280;34426;52.180;4.462;2023-12-04T12:20:39;100515.72;;;3.25;83.13
48630;BME280;34426;52.180;4.462;2023-12-04T12:23:04;100512.59;;;3.21;84.18
48630;BME280;34426;52.180;4.462;2023-12-04T12:25:30;100513.94;;;3.12;85.00
48630;BME280;34426;52.180;4.462;2023-12-04T12:27:55;100498.16;;;3.19;84.87
48630;BME280;34426;52.180;4.462;2023-12-04T12:30:21;100502.03;;;3.12;85.74
48630;BME280;34426;52.180;4.462;2023-12-04T12:32:46;100500.28;;;3.17;85.57
48630;BME280;34426;52.180;4.462;2023-12-04T12:35:12;100497.31;;;3.19;86.69
48630;BME280;34426;52.180;4.462;2023-12-04T12:37:39;100492.47;;;3.14;87.25
48630;BME280;34426;52.180;4.462;2023-12-04T12:40:06;100501.59;;;3.15;87.28
48630;BME280;34426;52.180;4.462;2023-12-04T12:42:32;100479.94;;;3.12;88.19
48630;BME280;34426;52.180;4.462;2023-12-04T12:45:00;100475.81;;;3.03;88.47
48630;BME280;34426;52.180;4.462;2023-12-04T12:47:26;100468.66;;;2.95;88.80
48630;BME280;34426;52.180;4.462;2023-12-04T12:49:52;100465.22;;;2.99;88.64